Time;durP1;ratioP1;P1;durP2;ratioP2;P2;SDS_P1;SDS_P2;PMS_P1;PMS_P2;Temp;Humidity;BMP_temperature;BMP_pressure;BME280_temperature;BME280_humidity;BME280_pressure;Samples;Min_cycle;Max_cycle;Signal;HPM_P1;HPM_P2
2022/03/14 00:02:36;;;;;;;40.55;20.52;;;;;;;-139.48;100.00;61774.03;5053239;28;20516;-75
2022/03/14 00:05:21;;;;;;;32.97;20.42;;;;;;;-139.48;100.00;61774.03;5024696;28;20051;-75
2022/03/14 00:08:06;;;;;;;34.38;20.00;;;;;;;-139.48;100.00;61774.03;5038465;28;20072;-74
2022/03/14 00:10:51;;;;;;;29.85;17.80;;;;;;;-139.48;100.00;61774.03;5038252;28;20521;-75
2022/03/14 00:13:35;;;;;;;31.85;17.20;;;;;;;-139.48;100.00;61774.03;5038210;28;20052;-75
2022/03/14 00:16:36;;;;;;;34.53;18.45;;;;;;;-139.48;100.00;61774.03;5053170;28;20079;-75
2022/03/14 00:19:23;;;;;;;29.38;17.50;;;;;;;-139.48;100.00;61774.03;5053549;28;20420;-74
2022/03/14 00:22:07;;;;;;;30.08;18.08;;;;;;;-139.48;100.00;61774.03;5038520;28;20108;-74
2022/03/14 00:24:51;;;;;;;;;;;;;;;-139.48;100.00;61774.03;5038200;28;20508;-75
2022/03/14 00:27:35;;;;;;;29.43;17.40;;;;;;;-139.48;100.00;61774.03;5037794;28;19919;-73
2022/03/14 00:30:19;;;;;;;23.95;15.85;;;;;;;-139.48;100.00;61774.03;5024146;28;20254;-74
2022/03/14 00:33:03;;;;;;;29.33;17.58;;;;;;;-139.48;100.00;61774.03;5023660;28;20424;-74
2022/03/14 00:35:47;;;;;;;26.33;14.30;;;;;;;-139.48;100.00;61774.03;5052905;28;20047;-74
2022/03/14 00:38:32;;;;;;;22.38;14.23;;;;;;;-139.48;100.00;61774.03;5037769;28;20095;-74
2022/03/14 00:41:16;;;;;;;19.40;12.77;;;;;;;-139.48;100.00;61774.03;5052946;28;20051;-74
2022/03/14 00:44:00;;;;;;;17.08;11.55;;;;;;;-139.48;100.00;61774.03;5037499;28;20118;-74
2022/03/14 00:46:44;;;;;;;16.13;10.48;;;;;;;-139.48;100.00;61774.03;5052822;28;20508;-74
2022/03/14 00:49:28;;;;;;;13.52;9.50;;;;;;;-139.48;100.00;61774.03;5037659;28;20091;-74
2022/03/14 00:52:12;;;;;;;13.95;9.68;;;;;;;-139.48;100.00;61774.03;5037714;28;20067;-74
2022/03/14 00:54:56;;;;;;;13.40;8.88;;;;;;;-139.48;100.00;61774.03;5023746;28;20075;-74
2022/03/14 00:57:40;;;;;;;14.77;8.63;;;;;;;-139.48;100.00;61774.03;5055671;22;20052;-73
2022/03/14 01:00:24;;;;;;;11.85;8.07;;;;;;;-139.48;100.00;61774.03;5017634;28;20048;-72
2022/03/14 01:03:08;;;;;;;13.38;8.70;;;;;;;-139.48;100.00;61774.03;5032852;28;20477;-73
2022/03/14 01:05:52;;;;;;;8.82;5.65;;;;;;;-139.48;100.00;61774.03;5017859;28;20048;-73
2022/03/14 01:08:36;;;;;;;9.60;5.50;;;;;;;-139.48;100.00;61774.03;5017605;28;20135;-73
2022/03/14 01:11:20;;;;;;;;;;;;;;;-139.48;100.00;61774.03;5033452;28;20187;-73
2022/03/14 01:14:04;;;;;;;5.22;3.72;;;;;;;-139.48;100.00;61774.03;5017770;28;19920;-73
2022/03/14 01:16:49;;;;;;;7.43;4.72;;;;;;;-139.48;100.00;61774.03;5003580;28;20421;-72
2022/03/14 01:19:33;;;;;;;9.95;4.28;;;;;;;-139.48;100.00;61774.03;5017557;28;20163;-72
2022/03/14 01:22:17;;;;;;;6.32;3.28;;;;;;;-139.48;100.00;61774.03;5032556;28;20100;-72
2022/03/14 01:25:02;;;;;;;5.00;3.17;;;;;;;-139.48;100.00;61774.03;5032627;28;20084;-72
2022/03/14 01:27:46;;;;;;;3.95;3.08;;;;;;;-139.48;100.00;61774.03;5032250;28;20504;-71
2022/03/14 01:30:30;;;;;;;5.20;2.88;;;;;;;-139.48;100.00;61774.03;5017535;28;20052;-72
2022/03/14 01:33:14;;;;;;;6.85;3.17;;;;;;;-139.48;100.00;61774.03;5017467;28;20080;-72
2022/03/14 01:35:57;;;;;;;5.00;2.25;;;;;;;-139.48;100.00;61774.03;5003577;28;20048;-72
2022/03/14 01:38:41;;;;;;;3.40;2.50;;;;;;;-139.48;100.00;61774.03;5032357;28;20092;-73
2022/03/14 01:41:27;;;;;;;3.70;2.25;;;;;;;-139.48;100.00;61774.03;5032444;28;20047;-72
2022/03/14 01:44:11;;;;;;;3.88;2.28;;;;;;;-139.48;100.00;61774.03;5017449;28;20099;-72
2022/03/14 01:46:55;;;;;;;3.65;2.72;;;;;;;-139.48;100.00;61774.03;5032444;28;20060;-72
2022/03/14 01:49:39;;;;;;;3.05;2.10;;;;;;;-139.48;100.00;61774.03;5032148;28;20410;-72
2022/03/14 01:52:22;;;;;;;5.15;2.80;;;;;;;-139.48;100.00;61774.03;5003447;28;20095;-72
2022/03/14 01:55:07;;;;;;;8.13;2.70;;;;;;;-139.48;100.00;61774.03;5032288;28;20048;-72
2022/03/14 01:57:54;;;;;;;2.80;2.13;;;;;;;-139.48;100.00;61774.03;5032194;28;20536;-72
2022/03/14 02:00:39;;;;;;;3.78;2.45;;;;;;;-139.48;100.00;61774.03;5017240;28;20120;-72
2022/03/14 02:03:23;;;;;;;4.05;2.38;;;;;;;-139.48;100.00;61774.03;5003521;28;20135;-73
2022/03/14 02:06:08;;;;;;;6.32;2.78;;;;;;;-139.48;100.00;61774.03;5017043;28;20064;-73
2022/03/14 02:08:52;;;;;;;6.00;3.10;;;;;;;-139.48;100.00;61774.03;5032796;28;20040;-73
2022/03/14 02:11:36;;;;;;;3.25;2.33;;;;;;;-139.48;100.00;61774.03;5035532;28;20055;-73
2022/03/14 02:14:20;;;;;;;3.42;2.60;;;;;;;-139.48;100.00;61774.03;5035496;28;20095;-73
2022/03/14 02:17:04;;;;;;;3.60;2.40;;;;;;;-139.48;100.00;61774.03;5006724;28;20049;-73
2022/03/14 02:19:49;;;;;;;3.75;2.42;;;;;;;-139.48;100.00;61774.03;5020352;28;20048;-73
2022/03/14 02:22:33;;;;;;;6.20;2.60;;;;;;;-139.48;100.00;61774.03;5020434;28;20103;-73
2022/03/14 02:25:17;;;;;;;3.28;2.28;;;;;;;-139.48;100.00;61774.03;5035527;28;20401;-72
2022/03/14 02:28:02;;;;;;;3.08;2.17;;;;;;;-139.48;100.00;61774.03;5020421;28;20704;-73
2022/03/14 02:30:47;;;;;;;3.63;2.17;;;;;;;-139.48;100.00;61774.03;5020416;28;20096;-73
2022/03/14 02:33:32;;;;;;;3.45;1.80;;;;;;;-139.48;100.00;61774.03;5020068;28;20508;-72
2022/03/14 02:36:16;;;;;;;2.40;1.40;;;;;;;-139.48;100.00;61774.03;5035274;28;20049;-72
2022/03/14 02:39:00;;;;;;;2.45;1.88;;;;;;;-139.48;100.00;61774.03;5019850;28;20080;-73
2022/03/14 02:41:45;;;;;;;2.63;1.80;;;;;;;-139.48;100.00;61774.03;5020120;28;20460;-72
2022/03/14 02:44:31;;;;;;;2.40;1.85;;;;;;;-139.48;100.00;61774.03;5035132;28;20144;-73
2022/03/14 02:47:15;;;;;;;3.10;1.90;;;;;;;-139.48;100.00;61774.03;5019913;28;20103;-73
2022/03/14 02:50:00;;;;;;;3.42;1.60;;;;;;;-139.48;100.00;61774.03;5020095;28;20099;-73
2022/03/14 02:52:43;;;;;;;2.15;1.35;;;;;;;-139.48;100.00;61774.03;5020178;28;20064;-72
2022/03/14 02:55:28;;;;;;;2.22;1.52;;;;;;;-139.48;100.00;61774.03;5019741;28;20056;-72
2022/03/14 02:58:12;;;;;;;3.83;1.55;;;;;;;-139.48;100.00;61774.03;5019365;28;20436;-72
2022/03/14 03:00:57;;;;;;;3.20;1.50;;;;;;;-139.48;100.00;61774.03;5034812;28;20122;-72
2022/03/14 03:03:41;;;;;;;2.10;1.58;;;;;;;-139.48;100.00;61774.03;5034931;28;20104;-72
2022/03/14 03:06:25;;;;;;;2.28;1.48;;;;;;;-139.48;100.00;61774.03;5005575;28;20053;-72
2022/03/14 03:09:09;;;;;;;2.38;1.63;;;;;;;-139.48;100.00;61774.03;5034709;28;20056;-73
2022/03/14 03:11:56;;;;;;;3.47;1.80;;;;;;;-139.48;100.00;61774.03;5034630;28;20088;-73
2022/03/14 03:14:41;;;;;;;6.82;3.03;;;;;;;-139.48;100.00;61774.03;5034614;28;20464;-73
2022/03/14 03:17:25;;;;;;;6.57;2.90;;;;;;;-139.48;100.00;61774.03;5019379;28;20093;-73
2022/03/14 03:20:10;;;;;;;4.35;2.67;;;;;;;-139.48;100.00;61774.03;5019237;28;20056;-73
2022/03/14 03:22:54;;;;;;;6.65;3.20;;;;;;;-139.48;100.00;61774.03;5019310;28;20044;-72
2022/03/14 03:25:38;;;;;;;7.43;3.10;;;;;;;-139.48;100.00;61774.03;5005801;28;20155;-72
2022/03/14 03:28:22;;;;;;;3.88;2.47;;;;;;;-139.48;100.00;61774.03;5019074;28;20044;-72
2022/03/14 03:31:08;;;;;;;3.83;2.38;;;;;;;-139.48;100.00;61774.03;5019249;28;20092;-73
2022/03/14 03:33:52;;;;;;;7.25;2.15;;;;;;;-139.48;100.00;61774.03;5018970;28;20118;-72
2022/03/14 03:36:36;;;;;;;5.18;2.53;;;;;;;-139.48;100.00;61774.03;5019445;28;20130;-73
2022/03/14 03:39:20;;;;;;;7.43;2.42;;;;;;;-139.48;100.00;61774.03;5018995;28;20532;-73
2022/03/14 03:42:04;;;;;;;4.65;2.10;;;;;;;-139.48;100.00;61774.03;5018987;28;20564;-72
2022/03/14 03:44:48;;;;;;;5.65;2.05;;;;;;;-139.48;100.00;61774.03;5018777;28;20528;-72
2022/03/14 03:47:32;;;;;;;5.30;2.40;;;;;;;-139.48;100.00;61774.03;5033904;28;20079;-72
2022/03/14 03:50:17;;;;;;;4.97;2.35;;;;;;;-139.48;100.00;61774.03;5018671;28;20568;-72
2022/03/14 03:53:01;;;;;;;8.55;3.60;;;;;;;-139.48;100.00;61774.03;5018602;28;20519;-72
2022/03/14 03:55:44;;;;;;;6.68;3.42;;;;;;;-139.48;100.00;61774.03;5033602;28;20080;-72
2022/03/14 03:58:28;;;;;;;9.43;4.75;;;;;;;-139.48;100.00;61774.03;5033656;28;20131;-72
2022/03/14 04:01:21;;;;;;;11.70;4.50;;;;;;;-139.48;100.00;61774.03;5018466;28;20536;-72
2022/03/14 04:04:05;;;;;;;13.65;5.60;;;;;;;-139.48;100.00;61774.03;5019888;28;20108;-72
2022/03/14 04:06:53;;;;;;;11.63;5.35;;;;;;;-139.48;100.00;61774.03;5018606;28;20095;-72
2022/03/14 04:09:37;;;;;;;12.25;5.82;;;;;;;-139.48;100.00;61774.03;5005321;28;20114;-72
2022/03/14 04:12:26;;;;;;;12.10;5.70;;;;;;;-139.48;100.00;61774.03;5018552;28;20060;-72
2022/03/14 04:15:10;;;;;;;18.13;7.25;;;;;;;-139.48;100.00;61774.03;5033255;28;20137;-73
2022/03/14 04:17:59;;;;;;;14.13;6.50;;;;;;;-139.48;100.00;61774.03;5033176;28;20115;-72
2022/03/14 04:20:43;;;;;;;12.95;6.78;;;;;;;-139.48;100.00;61774.03;5005123;28;20048;-72
2022/03/14 04:23:31;;;;;;;12.88;7.22;;;;;;;-139.48;100.00;61774.03;5018072;28;20052;-71
2022/03/14 04:26:14;;;;;;;16.52;7.20;;;;;;;-139.48;100.00;61774.03;5018458;28;20183;-72
2022/03/14 04:28:58;;;;;;;14.77;6.22;;;;;;;-139.48;100.00;61774.03;5032977;28;20044;-72
2022/03/14 04:31:42;;;;;;;13.05;6.45;;;;;;;-139.48;100.00;61774.03;4990407;28;20133;-72
2022/03/14 04:34:26;;;;;;;15.02;7.55;;;;;;;-139.48;100.00;61774.03;5018023;28;20055;-72
2022/03/14 04:37:11;;;;;;;13.68;7.88;;;;;;;-139.48;100.00;61774.03;5018035;28;20044;-73
2022/03/14 04:39:55;;;;;;;21.17;7.93;;;;;;;-139.48;100.00;61774.03;5032991;28;20115;-72
2022/03/14 04:42:40;;;;;;;15.23;7.18;;;;;;;-139.48;100.00;61774.03;5018001;28;20555;-72
2022/03/14 04:45:24;;;;;;;22.05;7.78;;;;;;;-139.48;100.00;61774.03;5017689;28;20053;-72
2022/03/14 04:48:08;;;;;;;15.13;7.53;;;;;;;-139.48;100.00;61774.03;5017667;28;20114;-72
2022/03/14 04:50:52;;;;;;;13.90;6.97;;;;;;;-139.48;100.00;61774.03;5017737;28;20136;-72
2022/03/14 04:53:36;;;;;;;18.70;7.65;;;;;;;-139.48;100.00;61774.03;5032846;28;20466;-72
2022/03/14 04:56:20;;;;;;;16.33;7.20;;;;;;;-139.48;100.00;61774.03;5017883;28;20052;-72
2022/03/14 04:59:04;;;;;;;9.25;5.10;;;;;;;-139.48;100.00;61774.03;5032371;28;20551;-72
2022/03/14 05:01:48;;;;;;;8.73;4.38;;;;;;;-139.48;100.00;61774.03;5003750;28;20067;-71
2022/03/14 05:04:32;;;;;;;10.70;4.72;;;;;;;-139.48;100.00;61774.03;5017815;28;20052;-72
2022/03/14 05:07:17;;;;;;;7.80;3.75;;;;;;;-139.48;100.00;61774.03;5032526;28;20091;-72
2022/03/14 05:10:02;;;;;;;8.30;2.95;;;;;;;-139.48;100.00;61774.03;5003798;28;20113;-73
2022/03/14 05:12:46;;;;;;;7.72;3.03;;;;;;;-139.48;100.00;61774.03;5032541;28;20099;-73
2022/03/14 05:15:30;;;;;;;;;;;;;;;-139.48;100.00;61774.03;5033742;28;20048;-73
2022/03/14 05:18:14;;;;;;;4.90;2.85;;;;;;;-139.48;100.00;61774.03;5017717;28;20016;-73
2022/03/14 05:20:58;;;;;;;6.35;2.80;;;;;;;-139.48;100.00;61774.03;5032888;28;20119;-72
2022/03/14 05:23:42;;;;;;;10.52;2.70;;;;;;;-139.48;100.00;61774.03;5003958;28;20501;-72
2022/03/14 05:26:26;;;;;;;5.65;2.20;;;;;;;-139.48;100.00;61774.03;5017654;28;20040;-72
2022/03/14 05:29:12;;;;;;;;;;;;;;;-139.48;100.00;61774.03;5032815;28;20124;-73
2022/03/14 05:31:57;;;;;;;19.00;3.20;;;;;;;-139.48;100.00;61774.03;5032378;28;19959;-72
2022/03/14 05:34:41;;;;;;;7.40;2.30;;;;;;;-139.48;100.00;61774.03;5032321;28;20052;-72
2022/03/14 05:37:25;;;;;;;;;;;;;;;-139.48;100.00;61774.03;5017652;28;20056;-73
2022/03/14 05:40:10;;;;;;;7.95;2.70;;;;;;;-139.48;100.00;61774.03;5003407;28;19924;-73
2022/03/14 05:42:55;;;;;;;5.40;2.38;;;;;;;-139.48;100.00;61774.03;5032483;28;20417;-73
2022/03/14 05:45:39;;;;;;;4.15;2.35;;;;;;;-139.48;100.00;61774.03;5006641;28;20467;-73
2022/03/14 05:48:23;;;;;;;7.65;3.08;;;;;;;-139.48;100.00;61774.03;5036132;28;20115;-72
2022/03/14 05:51:07;;;;;;;5.72;2.40;;;;;;;-139.48;100.00;61774.03;5020958;28;20472;-73
2022/03/14 05:53:51;;;;;;;9.20;2.55;;;;;;;-139.48;100.00;61774.03;5020805;28;20128;-73
2022/03/14 05:56:35;;;;;;;6.15;2.33;;;;;;;-139.48;100.00;61774.03;5036089;28;20052;-73
2022/03/14 05:59:19;;;;;;;6.53;2.40;;;;;;;-139.48;100.00;61774.03;5020641;28;20041;-72
2022/03/14 06:02:03;;;;;;;7.93;2.95;;;;;;;-139.48;100.00;61774.03;5021253;28;20064;-72
2022/03/14 06:04:48;;;;;;;4.55;2.95;;;;;;;-139.48;100.00;61774.03;5007107;28;20092;-73
2022/03/14 06:07:33;;;;;;;5.22;2.80;;;;;;;-139.48;100.00;61774.03;5035606;28;20107;-74
2022/03/14 06:10:17;;;;;;;5.00;2.80;;;;;;;-139.48;100.00;61774.03;5036143;28;20056;-73
2022/03/14 06:13:01;;;;;;;8.90;3.38;;;;;;;-139.48;100.00;61774.03;5021000;28;20128;-72
2022/03/14 06:15:47;;;;;;;5.13;2.83;;;;;;;-139.48;100.00;61774.03;5020697;28;20056;-72
2022/03/14 06:18:31;;;;;;;8.65;3.38;;;;;;;-139.48;100.00;61774.03;5020528;28;20120;-73
2022/03/14 06:21:15;;;;;;;4.70;2.70;;;;;;;-139.48;100.00;61774.03;5035759;28;20044;-72
2022/03/14 06:23:59;;;;;;;17.05;3.40;;;;;;;-139.48;100.00;61774.03;5020625;28;20551;-72
2022/03/14 06:26:43;;;;;;;6.80;3.33;;;;;;;-139.48;100.00;61774.03;5020218;28;20048;-72
2022/03/14 06:29:27;;;;;;;5.80;3.53;;;;;;;-139.48;100.00;61774.03;5020047;28;20047;-72
2022/03/14 06:32:12;;;;;;;7.15;3.30;;;;;;;-139.48;100.00;61774.03;5020458;28;20381;-72
2022/03/14 06:34:56;;;;;;;7.40;3.47;;;;;;;-139.48;100.00;61774.03;5020425;28;20547;-72
2022/03/14 06:37:41;;;;;;;6.18;3.50;;;;;;;-139.48;100.00;61774.03;5035125;28;20095;-73
2022/03/14 06:40:27;;;;;;;5.20;2.63;;;;;;;-139.48;100.00;61774.03;5006444;28;20056;-72
2022/03/14 06:43:11;;;;;;;7.95;3.33;;;;;;;-139.48;100.00;61774.03;5034988;28;20556;-73
2022/03/14 06:45:55;;;;;;;8.40;3.13;;;;;;;-139.48;100.00;61774.03;5006442;28;20056;-72
2022/03/14 06:48:40;;;;;;;8.98;2.85;;;;;;;-139.48;100.00;61774.03;5034901;28;20464;-72
2022/03/14 06:51:24;;;;;;;4.85;2.72;;;;;;;-139.48;100.00;61774.03;5020054;28;20071;-72
2022/03/14 06:54:09;;;;;;;3.95;2.20;;;;;;;-139.48;100.00;61774.03;5020060;28;20615;-72
2022/03/14 06:56:53;;;;;;;5.85;2.25;;;;;;;-139.48;100.00;61774.03;5034587;28;20184;-72
2022/03/14 06:59:38;;;;;;;3.88;1.80;;;;;;;-139.48;100.00;61774.03;5019756;28;20551;-72
2022/03/14 07:02:24;;;;;;;4.55;1.88;;;;;;;-139.48;100.00;61774.03;5019817;28;20112;-71
2022/03/14 07:05:13;;;;;;;7.22;1.88;;;;;;;-139.48;100.00;61774.03;5006058;28;20099;-73
2022/03/14 07:07:57;;;;;;;5.82;2.30;;;;;;;-139.48;100.00;61774.03;5019464;28;20417;-73
2022/03/14 07:10:41;;;;;;;3.78;1.98;;;;;;;-139.48;100.00;61774.03;5005651;28;20047;-73
2022/03/14 07:13:25;;;;;;;3.20;2.13;;;;;;;-139.48;100.00;61774.03;5034732;28;20064;-72
2022/03/14 07:16:08;;;;;;;5.03;1.90;;;;;;;-139.48;100.00;61774.03;5019607;28;20401;-73
2022/03/14 07:18:52;;;;;;;4.28;1.80;;;;;;;-139.48;100.00;61774.03;5005807;28;20413;-73
2022/03/14 07:21:36;;;;;;;4.60;1.65;;;;;;;-139.48;100.00;61774.03;5034763;28;20137;-73
2022/03/14 07:24:20;;;;;;;8.80;1.83;;;;;;;-139.48;100.00;61774.03;5019285;28;20504;-73
2022/03/14 07:27:04;;;;;;;;;;;;;;;-139.48;100.00;61774.03;5034806;28;20044;-73
2022/03/14 07:29:48;;;;;;;3.30;1.58;;;;;;;-139.48;100.00;61774.03;5005464;28;20384;-73
2022/03/14 07:32:32;;;;;;;;;;;;;;;-139.48;100.00;61774.03;5034874;28;20111;-73
2022/03/14 07:35:16;;;;;;;4.50;1.80;;;;;;;-139.48;100.00;61774.03;5019047;28;19920;-73
2022/03/14 07:38:00;;;;;;;1.75;1.35;;;;;;;-139.48;100.00;61774.03;5019033;28;20051;-73
2022/03/14 07:40:45;;;;;;;7.05;1.45;;;;;;;-139.48;100.00;61774.03;5019192;28;20103;-73
2022/03/14 07:43:29;;;;;;;2.40;1.30;;;;;;;-139.48;100.00;61774.03;5034108;28;20113;-73
2022/03/14 07:46:13;;;;;;;4.97;1.60;;;;;;;-139.48;100.00;61774.03;5018891;28;20123;-73
2022/03/14 07:48:57;;;;;;;5.43;1.50;;;;;;;-139.48;100.00;61774.03;5018986;28;20123;-73
2022/03/14 07:51:41;;;;;;;2.97;1.52;;;;;;;-139.48;100.00;61774.03;5019022;28;20053;-73
2022/03/14 07:54:25;;;;;;;5.13;1.60;;;;;;;-139.48;100.00;61774.03;5018673;28;20060;-73
2022/03/14 07:57:09;;;;;;;4.93;1.27;;;;;;;-139.48;100.00;61774.03;5033894;28;20056;-74
2022/03/14 07:59:53;;;;;;;6.72;1.95;;;;;;;-139.48;100.00;61774.03;5018586;28;20103;-74
2022/03/14 08:02:38;;;;;;;6.07;2.40;;;;;;;-139.48;100.00;61774.03;5004767;28;20107;-74
2022/03/14 08:05:26;;;;;;;5.50;1.60;;;;;;;-139.48;100.00;61774.03;5018482;28;20142;-74
2022/03/14 08:08:10;;;;;;;4.95;1.17;;;;;;;-139.48;100.00;61774.03;5032792;28;20180;-74
2022/03/14 08:10:54;;;;;;;3.38;1.23;;;;;;;-139.48;100.00;61774.03;5033737;28;20501;-74
2022/03/14 08:13:39;;;;;;;5.85;1.60;;;;;;;-139.48;100.00;61774.03;5018760;28;20044;-74
2022/03/14 08:16:23;;;;;;;4.18;2.00;;;;;;;-139.48;100.00;61774.03;5018587;28;20088;-74
2022/03/14 08:19:07;;;;;;;3.15;1.40;;;;;;;-139.48;100.00;61774.03;5033193;28;20052;-74
2022/03/14 08:21:51;;;;;;;4.63;1.40;;;;;;;-139.48;100.00;61774.03;5018268;28;20389;-74
2022/03/14 08:24:36;;;;;;;4.50;1.42;;;;;;;-139.48;100.00;61774.03;5033193;28;20110;-74
2022/03/14 08:27:20;;;;;;;9.45;1.80;;;;;;;-139.48;100.00;61774.03;5018622;28;20107;-74
2022/03/14 08:30:05;;;;;;;3.25;1.38;;;;;;;-139.48;100.00;61774.03;5033089;28;20056;-74
2022/03/14 08:32:50;;;;;;;5.15;1.60;;;;;;;-139.48;100.00;61774.03;5033373;28;20507;-74
2022/03/14 08:35:34;;;;;;;3.75;1.50;;;;;;;-139.48;100.00;61774.03;5033044;28;20052;-74
2022/03/14 08:38:18;;;;;;;4.30;1.60;;;;;;;-139.48;100.00;61774.03;5018018;28;20103;-73
2022/03/14 08:41:02;;;;;;;3.35;1.38;;;;;;;-139.48;100.00;61774.03;5018364;28;20106;-74
2022/03/14 08:43:46;;;;;;;3.13;1.40;;;;;;;-139.48;100.00;61774.03;5033198;28;20044;-74
2022/03/14 08:46:30;;;;;;;2.28;1.40;;;;;;;-139.48;100.00;61774.03;5018161;28;20048;-74
2022/03/14 08:49:14;;;;;;;6.63;1.42;;;;;;;-139.48;100.00;61774.03;5018114;28;20132;-74
2022/03/14 08:52:01;;;;;;;4.25;1.55;;;;;;;-139.48;100.00;61774.03;5072405;22;20076;-77
2022/03/14 08:54:45;;;;;;;4.60;1.48;;;;;;;-139.48;100.00;61774.03;5037436;28;20083;-76
2022/03/14 08:57:29;;;;;;;3.20;1.67;;;;;;;-139.48;100.00;61774.03;5052554;28;20102;-76
2022/03/14 09:00:14;;;;;;;7.57;1.75;;;;;;;-139.48;100.00;61774.03;5037314;28;20121;-75
2022/03/14 09:02:58;;;;;;;4.38;1.75;;;;;;;-139.48;100.00;61774.03;5017745;28;20048;-76
2022/03/14 09:05:43;;;;;;;8.85;1.77;;;;;;;-139.48;100.00;61774.03;5017547;28;20067;-77
2022/03/14 09:08:27;;;;;;;2.53;1.55;;;;;;;-139.48;100.00;61774.03;5017901;28;20496;-74
2022/03/14 09:11:11;;;;;;;2.78;1.40;;;;;;;-139.48;100.00;61774.03;5032811;28;20467;-76
2022/03/14 09:13:55;;;;;;;3.75;1.48;;;;;;;-139.48;100.00;61774.03;5032797;28;20088;-77
2022/03/14 09:16:40;;;;;;;3.47;1.85;;;;;;;-139.48;100.00;61774.03;5032916;28;20177;-75
2022/03/14 09:19:25;;;;;;;5.32;1.40;;;;;;;-139.48;100.00;61774.03;5035809;28;20412;-75
2022/03/14 09:22:11;;;;;;;4.45;1.30;;;;;;;-139.48;100.00;61774.03;5036657;28;20056;-77
2022/03/14 09:24:55;;;;;;;3.45;1.33;;;;;;;-139.48;100.00;61774.03;5021680;28;20084;-75
2022/03/14 09:27:40;;;;;;;6.82;1.70;;;;;;;-139.48;100.00;61774.03;5021879;28;20102;-75
2022/03/14 09:30:24;;;;;;;3.70;1.20;;;;;;;-139.48;100.00;61774.03;5036249;28;20460;-75
2022/03/14 09:33:08;;;;;;;7.75;1.50;;;;;;;-139.48;100.00;61774.03;5021511;28;20087;-76
2022/03/14 09:35:52;;;;;;;3.65;1.17;;;;;;;-139.48;100.00;61774.03;5036467;28;20052;-76
2022/03/14 09:38:36;;;;;;;4.15;1.25;;;;;;;-139.48;100.00;61774.03;5021325;28;20477;-76
2022/03/14 09:41:20;;;;;;;5.35;1.30;;;;;;;-139.48;100.00;61774.03;5007334;28;20524;-77
2022/03/14 09:44:05;;;;;;;5.85;1.55;;;;;;;-139.48;100.00;61774.03;5021242;28;20095;-75
2022/03/14 09:46:49;;;;;;;7.78;1.90;;;;;;;-139.48;100.00;61774.03;5007267;28;20052;-77
2022/03/14 09:49:34;;;;;;;;;;;;;;;-139.48;100.00;61774.03;5036887;28;20060;-76
2022/03/14 09:52:18;;;;;;;8.52;1.85;;;;;;;-139.48;100.00;61774.03;5035897;28;20283;-76
2022/03/14 09:55:05;;;;;;;7.68;1.77;;;;;;;-139.48;100.00;61774.03;5036141;28;20049;-76
2022/03/14 09:57:49;;;;;;;4.85;1.20;;;;;;;-139.48;100.00;61774.03;5020865;28;20132;-76
2022/03/14 10:00:33;;;;;;;3.67;1.50;;;;;;;-139.48;100.00;61774.03;5035869;28;20480;-76
2022/03/14 10:03:18;;;;;;;4.97;1.67;;;;;;;-139.48;100.00;61774.03;5021017;28;20457;-76
2022/03/14 10:06:02;;;;;;;6.15;1.40;;;;;;;-139.48;100.00;61774.03;5020787;28;20417;-74
2022/03/14 10:08:46;;;;;;;2.92;1.27;;;;;;;-139.48;100.00;61774.03;5021070;28;20052;-76
2022/03/14 10:11:31;;;;;;;4.63;1.30;;;;;;;-139.48;100.00;61774.03;5036026;28;20559;-76
2022/03/14 10:14:19;;;;;;;5.25;1.48;;;;;;;-139.48;100.00;61774.03;5020706;28;20068;-76
2022/03/14 10:17:03;;;;;;;4.97;1.33;;;;;;;-139.48;100.00;61774.03;5021285;28;20047;-77
2022/03/14 10:19:55;;;;;;;4.45;1.33;;;;;;;-139.48;100.00;61774.03;5020619;28;20083;-75
2022/03/14 10:22:40;;;;;;;10.35;1.48;;;;;;;-139.48;100.00;61774.03;5020423;28;20060;-76
2022/03/14 10:25:24;;;;;;;5.45;1.65;;;;;;;-139.48;100.00;61774.03;5020579;28;20386;-78
2022/03/14 10:28:08;;;;;;;2.95;1.15;;;;;;;-139.48;100.00;61774.03;5035278;28;20095;-77
2022/03/14 10:30:52;;;;;;;4.47;1.75;;;;;;;-139.48;100.00;61774.03;5019465;28;20041;-76
2022/03/14 10:33:38;;;;;;;4.35;1.48;;;;;;;-139.48;100.00;61774.03;5035162;28;20414;-77
2022/03/14 10:36:45;;;;;;;4.65;1.38;;;;;;;-139.48;100.00;61774.03;5006398;28;20049;-77
2022/03/14 10:39:31;;;;;;;3.45;1.40;;;;;;;-139.48;100.00;61774.03;5020047;28;20160;-75
2022/03/14 10:42:16;;;;;;;5.63;1.60;;;;;;;-139.48;100.00;61774.03;5020038;28;20413;-77
2022/03/14 10:44:59;;;;;;;7.00;1.75;;;;;;;-139.48;100.00;61774.03;5034973;28;20079;-76
2022/03/14 10:47:52;;;;;;;6.10;1.98;;;;;;;-139.48;100.00;61774.03;5035041;28;20107;-77
2022/03/14 10:50:39;;;;;;;3.97;1.38;;;;;;;-139.48;100.00;61774.03;5019638;28;20099;-76
2022/03/14 10:53:23;;;;;;;4.43;1.70;;;;;;;-139.48;100.00;61774.03;5020127;28;20052;-77
2022/03/14 10:56:07;;;;;;;;;;;;;;;-139.48;100.00;61774.03;5035459;28;20533;-73
2022/03/14 10:58:55;;;;;;;7.60;1.70;;;;;;;-139.48;100.00;61774.03;5020044;28;19955;-75
2022/03/14 11:01:57;;;;;;;2.90;1.20;;;;;;;-139.48;100.00;61774.03;5019604;28;20432;-76
2022/03/14 11:05:01;;;;;;;3.58;1.25;;;;;;;-139.48;100.00;61774.03;5034601;28;20072;-75
2022/03/14 11:07:45;;;;;;;4.45;1.40;;;;;;;-139.48;100.00;61774.03;5019850;28;20048;-75
2022/03/14 11:10:37;;;;;;;5.60;1.90;;;;;;;-139.48;100.00;61774.03;5019427;28;20048;-75
2022/03/14 11:13:21;;;;;;;4.90;1.20;;;;;;;-139.48;100.00;61774.03;5019684;28;20501;-76
2022/03/14 11:16:06;;;;;;;3.80;1.50;;;;;;;-139.48;100.00;61774.03;5035114;28;20064;-76
2022/03/14 11:18:51;;;;;;;6.90;1.23;;;;;;;-139.48;100.00;61774.03;5005731;28;20569;-75
2022/03/14 11:21:36;;;;;;;3.47;1.30;;;;;;;-139.48;100.00;61774.03;5019513;28;20139;-77
2022/03/14 11:24:20;;;;;;;4.32;1.40;;;;;;;-139.48;100.00;61774.03;5019527;28;20111;-77
2022/03/14 11:27:04;;;;;;;3.88;1.40;;;;;;;-139.48;100.00;61774.03;5034399;28;20072;-75
2022/03/14 11:29:50;;;;;;;6.05;1.38;;;;;;;-139.48;100.00;61774.03;5019122;28;20094;-76
2022/03/14 11:32:36;;;;;;;5.38;1.38;;;;;;;-139.48;100.00;61774.03;5019289;28;20354;-76
2022/03/14 11:35:20;;;;;;;4.00;1.20;;;;;;;-139.48;100.00;61774.03;5019319;28;20104;-76
2022/03/14 11:38:04;;;;;;;5.45;1.20;;;;;;;-139.48;100.00;61774.03;5019100;28;20049;-76
2022/03/14 11:40:51;;;;;;;6.97;1.10;;;;;;;-139.48;100.00;61774.03;5019136;28;20086;-76
2022/03/14 11:43:38;;;;;;;4.40;0.90;;;;;;;-139.48;100.00;61774.03;5033080;28;20424;-76
2022/03/14 11:46:22;;;;;;;2.40;1.05;;;;;;;-139.48;100.00;61774.03;5018819;28;20052;-76
2022/03/14 11:49:13;;;;;;;3.33;1.13;;;;;;;-139.48;100.00;61774.03;5019071;28;20115;-75
2022/03/14 11:52:13;;;;;;;4.05;1.48;;;;;;;-139.48;100.00;61774.03;5018875;28;20147;-75
2022/03/14 11:55:02;;;;;;;4.30;1.10;;;;;;;-139.48;100.00;61774.03;5018884;28;20437;-74
2022/03/14 11:57:47;;;;;;;8.00;1.40;;;;;;;-139.48;100.00;61774.03;5033818;28;20116;-76
2022/03/14 12:00:32;;;;;;;2.22;1.02;;;;;;;-139.48;100.00;61774.03;5018728;28;20358;-75
2022/03/14 12:03:34;;;;;;;3.33;1.20;;;;;;;-139.48;100.00;61774.03;5018781;28;20052;-75
2022/03/14 12:06:46;;;;;;;5.07;1.23;;;;;;;-139.48;100.00;61774.03;5033444;28;20132;-76
2022/03/14 12:09:30;;;;;;;4.22;1.27;;;;;;;-139.48;100.00;61774.03;5033612;28;20056;-76
2022/03/14 12:12:14;;;;;;;5.43;0.85;;;;;;;-139.48;100.00;61774.03;5033370;28;20103;-76
2022/03/14 12:14:59;;;;;;;4.85;1.17;;;;;;;-139.48;100.00;61774.03;5018791;28;20174;-74
2022/03/14 12:17:45;;;;;;;4.32;1.40;;;;;;;-139.48;100.00;61774.03;5033445;28;20044;-76
2022/03/14 12:20:29;;;;;;;5.38;1.60;;;;;;;-139.48;100.00;61774.03;5018519;28;20099;-76
2022/03/14 12:23:23;;;;;;;4.50;1.55;;;;;;;-139.48;100.00;61774.03;5018393;28;20099;-73
2022/03/14 12:26:24;;;;;;;4.15;1.35;;;;;;;-139.48;100.00;61774.03;5018572;28;20353;-73
2022/03/14 12:29:37;;;;;;;4.03;1.15;;;;;;;-139.48;100.00;61774.03;5018114;28;20137;-76
2022/03/14 12:32:38;;;;;;;6.22;1.52;;;;;;;-139.48;100.00;61774.03;5017950;28;20052;-77